sensor_id;sensor_type;location;lat;lon;timestamp;P1;durP1;ratioP1;P2;durP2;ratioP2
21274;SDS011;36472;52.170;20.884;2024-02-26T00:00:28;21.35;;;13.93;;
21274;SDS011;36472;52.170;20.884;2024-02-26T00:03:17;19.17;;;13.27;;
21274;SDS011;36472;52.170;20.884;2024-02-26T00:05:47;20.00;;;13.00;;
21274;SDS011;36472;52.170;20.884;2024-02-26T00:08:16;20.73;;;14.18;;
21274;SDS011;36472;52.170;20.884;2024-02-26T00:10:45;20.25;;;13.85;;
21274;SDS011;36472;52.170;20.884;2024-02-26T00:13:15;19.13;;;13.63;;
21274;SDS011;36472;52.170;20.884;2024-02-26T00:15:44;19.65;;;13.32;;
21274;SDS011;36472;52.170;20.884;2024-02-26T00:18:14;21.00;;;12.75;;
21274;SDS011;36472;52.170;20.884;2024-02-26T00:20:43;20.08;;;13.32;;
21274;SDS011;36472;52.170;20.884;2024-02-26T00:23:14;19.00;;;13.15;;
21274;SDS011;36472;52.170;20.884;2024-02-26T00:25:43;22.13;;;14.60;;
21274;SDS011;36472;52.170;20.884;2024-02-26T00:28:13;21.20;;;15.38;;
21274;SDS011;36472;52.170;20.884;2024-02-26T00:30:43;21.85;;;14.77;;
21274;SDS011;36472;52.170;20.884;2024-02-26T00:33:12;20.65;;;15.05;;
21274;SDS011;36472;52.170;20.884;2024-02-26T00:35:43;29.45;;;16.33;;
21274;SDS011;36472;52.170;20.884;2024-02-26T00:38:12;26.23;;;17.15;;
21274;SDS011;36472;52.170;20.884;2024-02-26T00:40:41;29.42;;;18.67;;
21274;SDS011;36472;52.170;20.884;2024-02-26T00:43:10;28.38;;;18.80;;
21274;SDS011;36472;52.170;20.884;2024-02-26T00:45:39;29.13;;;17.95;;
21274;SDS011;36472;52.170;20.884;2024-02-26T00:48:10;29.55;;;18.92;;
21274;SDS011;36472;52.170;20.884;2024-02-26T00:50:40;30.48;;;18.98;;
21274;SDS011;36472;52.170;20.884;2024-02-26T00:53:10;29.27;;;18.88;;
21274;SDS011;36472;52.170;20.884;2024-02-26T00:55:39;30.40;;;19.20;;
21274;SDS011;36472;52.170;20.884;2024-02-26T00:58:08;32.85;;;20.33;;
21274;SDS011;36472;52.170;20.884;2024-02-26T01:00:37;29.58;;;18.25;;
21274;SDS011;36472;52.170;20.884;2024-02-26T01:03:07;34.33;;;19.10;;
21274;SDS011;36472;52.170;20.884;2024-02-26T01:05:39;30.27;;;18.85;;
21274;SDS011;36472;52.170;20.884;2024-02-26T01:08:08;29.48;;;18.50;;
21274;SDS011;36472;52.170;20.884;2024-02-26T01:10:37;27.65;;;17.85;;
21274;SDS011;36472;52.170;20.884;2024-02-26T01:13:06;29.70;;;17.63;;
21274;SDS011;36472;52.170;20.884;2024-02-26T01:15:35;30.02;;;18.40;;
21274;SDS011;36472;52.170;20.884;2024-02-26T01:18:04;26.27;;;17.15;;
21274;SDS011;36472;52.170;20.884;2024-02-26T01:20:33;30.02;;;18.17;;
21274;SDS011;36472;52.170;20.884;2024-02-26T01:23:04;25.30;;;17.33;;
21274;SDS011;36472;52.170;20.884;2024-02-26T01:25:33;31.15;;;18.27;;
21274;SDS011;36472;52.170;20.884;2024-02-26T01:28:02;29.27;;;17.33;;
21274;SDS011;36472;52.170;20.884;2024-02-26T01:30:32;26.30;;;18.00;;
21274;SDS011;36472;52.170;20.884;2024-02-26T01:33:01;31.13;;;18.73;;
21274;SDS011;36472;52.170;20.884;2024-02-26T01:35:30;28.13;;;19.10;;
21274;SDS011;36472;52.170;20.884;2024-02-26T01:37:58;26.33;;;18.10;;
21274;SDS011;36472;52.170;20.884;2024-02-26T01:40:29;29.55;;;18.45;;
21274;SDS011;36472;52.170;20.884;2024-02-26T01:42:58;28.42;;;18.85;;
21274;SDS011;36472;52.170;20.884;2024-02-26T01:45:28;29.30;;;19.38;;
21274;SDS011;36472;52.170;20.884;2024-02-26T01:47:57;28.80;;;18.60;;
21274;SDS011;36472;52.170;20.884;2024-02-26T01:50:26;28.48;;;18.00;;
21274;SDS011;36472;52.170;20.884;2024-02-26T01:52:57;26.83;;;17.45;;
21274;SDS011;36472;52.170;20.884;2024-02-26T01:55:26;31.60;;;18.88;;
21274;SDS011;36472;52.170;20.884;2024-02-26T01:57:57;25.98;;;17.85;;
21274;SDS011;36472;52.170;20.884;2024-02-26T02:00:26;30.77;;;18.55;;
21274;SDS011;36472;52.170;20.884;2024-02-26T02:02:56;29.40;;;18.95;;
21274;SDS011;36472;52.170;20.884;2024-02-26T02:05:25;29.30;;;19.17;;
21274;SDS011;36472;52.170;20.884;2024-02-26T02:07:55;27.88;;;17.60;;
21274;SDS011;36472;52.170;20.884;2024-02-26T02:10:24;30.88;;;18.60;;
21274;SDS011;36472;52.170;20.884;2024-02-26T02:12:56;24.88;;;16.48;;
21274;SDS011;36472;52.170;20.884;2024-02-26T02:15:25;26.48;;;17.67;;
21274;SDS011;36472;52.170;20.884;2024-02-26T02:17:54;26.50;;;18.35;;
21274;SDS011;36472;52.170;20.884;2024-02-26T02:20:26;28.80;;;17.38;;
21274;SDS011;36472;52.170;20.884;2024-02-26T02:23:01;28.55;;;18.05;;
21274;SDS011;36472;52.170;20.884;2024-02-26T02:25:30;28.33;;;18.02;;
21274;SDS011;36472;52.170;20.884;2024-02-26T02:28:00;30.08;;;17.95;;
21274;SDS011;36472;52.170;20.884;2024-02-26T02:30:30;27.40;;;17.73;;
21274;SDS011;36472;52.170;20.884;2024-02-26T02:33:00;25.83;;;17.25;;
21274;SDS011;36472;52.170;20.884;2024-02-26T02:35:31;30.92;;;18.33;;
21274;SDS011;36472;52.170;20.884;2024-02-26T02:38:01;24.40;;;16.75;;
21274;SDS011;36472;52.170;20.884;2024-02-26T02:40:31;27.17;;;17.88;;
21274;SDS011;36472;52.170;20.884;2024-02-26T02:43:00;30.02;;;18.02;;
21274;SDS011;36472;52.170;20.884;2024-02-26T02:45:29;30.08;;;18.50;;
21274;SDS011;36472;52.170;20.884;2024-02-26T02:47:58;29.30;;;18.65;;
21274;SDS011;36472;52.170;20.884;2024-02-26T02:50:28;27.05;;;17.75;;
21274;SDS011;36472;52.170;20.884;2024-02-26T02:52:58;25.55;;;17.80;;
21274;SDS011;36472;52.170;20.884;2024-02-26T02:55:28;27.50;;;17.67;;
21274;SDS011;36472;52.170;20.884;2024-02-26T02:57:57;27.48;;;17.92;;
21274;SDS011;36472;52.170;20.884;2024-02-26T03:00:26;25.00;;;18.10;;
21274;SDS011;36472;52.170;20.884;2024-02-26T03:02:55;30.05;;;19.02;;
21274;SDS011;36472;52.170;20.884;2024-02-26T03:05:24;27.70;;;18.33;;
21274;SDS011;36472;52.170;20.884;2024-02-26T03:07:53;28.08;;;18.65;;
21274;SDS011;36472;52.170;20.884;2024-02-26T03:10:24;26.90;;;18.02;;
21274;SDS011;36472;52.170;20.884;2024-02-26T03:12:53;29.23;;;18.67;;
21274;SDS011;36472;52.170;20.884;2024-02-26T03:15:23;28.92;;;18.42;;
21274;SDS011;36472;52.170;20.884;2024-02-26T03:17:52;27.60;;;18.00;;
21274;SDS011;36472;52.170;20.884;2024-02-26T03:20:21;27.30;;;17.27;;
21274;SDS011;36472;52.170;20.884;2024-02-26T03:22:50;29.77;;;18.67;;
21274;SDS011;36472;52.170;20.884;2024-02-26T03:25:19;29.25;;;18.83;;
21274;SDS011;36472;52.170;20.884;2024-02-26T03:27:49;27.15;;;18.02;;
21274;SDS011;36472;52.170;20.884;2024-02-26T03:30:18;29.38;;;18.80;;
21274;SDS011;36472;52.170;20.884;2024-02-26T03:32:48;25.42;;;16.83;;
21274;SDS011;36472;52.170;20.884;2024-02-26T03:35:17;26.08;;;17.67;;
21274;SDS011;36472;52.170;20.884;2024-02-26T03:37:46;26.75;;;17.17;;
21274;SDS011;36472;52.170;20.884;2024-02-26T03:40:17;27.88;;;18.08;;
21274;SDS011;36472;52.170;20.884;2024-02-26T03:42:46;23.95;;;16.75;;
21274;SDS011;36472;52.170;20.884;2024-02-26T03:45:17;28.75;;;18.63;;
21274;SDS011;36472;52.170;20.884;2024-02-26T03:47:46;23.73;;;16.38;;
21274;SDS011;36472;52.170;20.884;2024-02-26T03:50:15;27.88;;;18.15;;
21274;SDS011;36472;52.170;20.884;2024-02-26T03:52:44;26.95;;;17.75;;
21274;SDS011;36472;52.170;20.884;2024-02-26T03:55:13;27.95;;;18.38;;
21274;SDS011;36472;52.170;20.884;2024-02-26T03:57:43;27.67;;;18.33;;
21274;SDS011;36472;52.170;20.884;2024-02-26T04:00:12;29.08;;;17.70;;
21274;SDS011;36472;52.170;20.884;2024-02-26T04:02:43;28.42;;;17.60;;
21274;SDS011;36472;52.170;20.884;2024-02-26T04:05:12;27.40;;;17.02;;
21274;SDS011;36472;52.170;20.884;2024-02-26T04:07:42;31.05;;;18.98;;
21274;SDS011;36472;52.170;20.884;2024-02-26T04:10:11;27.02;;;17.83;;
21274;SDS011;36472;52.170;20.884;2024-02-26T04:12:41;26.40;;;17.27;;
21274;SDS011;36472;52.170;20.884;2024-02-26T04:15:11;27.83;;;18.20;;
21274;SDS011;36472;52.170;20.884;2024-02-26T04:17:40;28.58;;;17.77;;
21274;SDS011;36472;52.170;20.884;2024-02-26T04:20:13;27.35;;;16.48;;
21274;SDS011;36472;52.170;20.884;2024-02-26T04:22:44;26.45;;;17.88;;
21274;SDS011;36472;52.170;20.884;2024-02-26T04:25:13;25.75;;;16.90;;
21274;SDS011;36472;52.170;20.884;2024-02-26T04:27:42;25.60;;;17.85;;
21274;SDS011;36472;52.170;20.884;2024-02-26T04:30:11;25.50;;;16.85;;
21274;SDS011;36472;52.170;20.884;2024-02-26T04:32:41;26.83;;;17.17;;
21274;SDS011;36472;52.170;20.884;2024-02-26T04:35:10;23.65;;;15.27;;
21274;SDS011;36472;52.170;20.884;2024-02-26T04:37:41;23.60;;;16.00;;
21274;SDS011;36472;52.170;20.884;2024-02-26T04:40:10;24.92;;;16.58;;
21274;SDS011;36472;52.170;20.884;2024-02-26T04:42:40;25.38;;;17.10;;
21274;SDS011;36472;52.170;20.884;2024-02-26T04:45:09;29.27;;;16.90;;
21274;SDS011;36472;52.170;20.884;2024-02-26T04:47:38;23.27;;;16.40;;
21274;SDS011;36472;52.170;20.884;2024-02-26T04:50:07;24.95;;;15.80;;
21274;SDS011;36472;52.170;20.884;2024-02-26T04:52:38;23.30;;;15.40;;
21274;SDS011;36472;52.170;20.884;2024-02-26T04:55:07;22.15;;;16.17;;
21274;SDS011;36472;52.170;20.884;2024-02-26T04:57:37;26.13;;;16.38;;
21274;SDS011;36472;52.170;20.884;2024-02-26T05:00:06;25.42;;;16.10;;
21274;SDS011;36472;52.170;20.884;2024-02-26T05:02:37;25.05;;;15.93;;
21274;SDS011;36472;52.170;20.884;2024-02-26T05:05:06;23.60;;;15.73;;
21274;SDS011;36472;52.170;20.884;2024-02-26T05:07:40;25.98;;;16.63;;
21274;SDS011;36472;52.170;20.884;2024-02-26T05:10:10;24.60;;;15.75;;
21274;SDS011;36472;52.170;20.884;2024-02-26T05:12:39;25.38;;;16.63;;
21274;SDS011;36472;52.170;20.884;2024-02-26T05:15:09;25.55;;;16.90;;
21274;SDS011;36472;52.170;20.884;2024-02-26T05:17:45;25.23;;;15.82;;
21274;SDS011;36472;52.170;20.884;2024-02-26T05:20:14;26.77;;;17.42;;
21274;SDS011;36472;52.170;20.884;2024-02-26T05:22:45;29.35;;;17.88;;
21274;SDS011;36472;52.170;20.884;2024-02-26T05:25:14;26.02;;;15.88;;
21274;SDS011;36472;52.170;20.884;2024-02-26T05:27:44;22.98;;;16.52;;
21274;SDS011;36472;52.170;20.884;2024-02-26T05:30:14;26.15;;;16.98;;
21274;SDS011;36472;52.170;20.884;2024-02-26T05:32:43;26.55;;;17.17;;
21274;SDS011;36472;52.170;20.884;2024-02-26T05:35:12;26.35;;;17.42;;
21274;SDS011;36472;52.170;20.884;2024-02-26T05:37:42;25.90;;;16.48;;
21274;SDS011;36472;52.170;20.884;2024-02-26T05:40:12;21.67;;;16.08;;
21274;SDS011;36472;52.170;20.884;2024-02-26T05:42:43;27.33;;;17.00;;
21274;SDS011;36472;52.170;20.884;2024-02-26T05:45:12;24.85;;;17.13;;
21274;SDS011;36472;52.170;20.884;2024-02-26T05:47:42;23.25;;;16.40;;
21274;SDS011;36472;52.170;20.884;2024-02-26T05:50:11;24.67;;;16.27;;
21274;SDS011;36472;52.170;20.884;2024-02-26T05:52:42;24.60;;;16.52;;
21274;SDS011;36472;52.170;20.884;2024-02-26T05:55:13;22.42;;;15.77;;
21274;SDS011;36472;52.170;20.884;2024-02-26T05:57:42;26.20;;;17.08;;
21274;SDS011;36472;52.170;20.884;2024-02-26T06:00:11;26.67;;;16.88;;
21274;SDS011;36472;52.170;20.884;2024-02-26T06:02:42;24.52;;;16.95;;
21274;SDS011;36472;52.170;20.884;2024-02-26T06:05:11;24.20;;;16.20;;
21274;SDS011;36472;52.170;20.884;2024-02-26T06:07:40;26.45;;;17.52;;
21274;SDS011;36472;52.170;20.884;2024-02-26T06:10:09;30.45;;;21.45;;
21274;SDS011;36472;52.170;20.884;2024-02-26T06:12:42;30.13;;;23.17;;
21274;SDS011;36472;52.170;20.884;2024-02-26T06:15:11;28.33;;;19.73;;
21274;SDS011;36472;52.170;20.884;2024-02-26T06:17:40;29.98;;;18.80;;
21274;SDS011;36472;52.170;20.884;2024-02-26T06:20:10;25.65;;;18.27;;
21274;SDS011;36472;52.170;20.884;2024-02-26T06:22:40;22.63;;;16.92;;
21274;SDS011;36472;52.170;20.884;2024-02-26T06:25:10;26.83;;;18.27;;
21274;SDS011;36472;52.170;20.884;2024-02-26T06:27:39;25.63;;;17.17;;
21274;SDS011;36472;52.170;20.884;2024-02-26T06:30:10;29.25;;;18.67;;
21274;SDS011;36472;52.170;20.884;2024-02-26T06:32:40;25.35;;;17.95;;
21274;SDS011;36472;52.170;20.884;2024-02-26T06:35:09;26.90;;;18.50;;
21274;SDS011;36472;52.170;20.884;2024-02-26T06:37:39;27.17;;;16.52;;
21274;SDS011;36472;52.170;20.884;2024-02-26T06:40:08;25.25;;;18.17;;
21274;SDS011;36472;52.170;20.884;2024-02-26T06:42:38;29.00;;;17.98;;
21274;SDS011;36472;52.170;20.884;2024-02-26T06:45:07;26.02;;;18.10;;
21274;SDS011;36472;52.170;20.884;2024-02-26T06:47:38;25.40;;;15.88;;
21274;SDS011;36472;52.170;20.884;2024-02-26T06:50:07;26.15;;;17.52;;
21274;SDS011;36472;52.170;20.884;2024-02-26T06:52:39;25.73;;;18.30;;
21274;SDS011;36472;52.170;20.884;2024-02-26T06:55:08;27.27;;;17.85;;
21274;SDS011;36472;52.170;20.884;2024-02-26T06:57:37;24.05;;;17.40;;
21274;SDS011;36472;52.170;20.884;2024-02-26T07:00:07;26.70;;;17.33;;
21274;SDS011;36472;52.170;20.884;2024-02-26T07:02:42;26.38;;;17.70;;
21274;SDS011;36472;52.170;20.884;2024-02-26T07:05:11;28.77;;;17.15;;
21274;SDS011;36472;52.170;20.884;2024-02-26T07:07:40;23.20;;;17.40;;
21274;SDS011;36472;52.170;20.884;2024-02-26T07:10:09;28.63;;;19.35;;
21274;SDS011;36472;52.170;20.884;2024-02-26T07:12:39;29.33;;;18.90;;
21274;SDS011;36472;52.170;20.884;2024-02-26T07:15:10;26.40;;;18.00;;
21274;SDS011;36472;52.170;20.884;2024-02-26T07:17:40;29.08;;;17.52;;
21274;SDS011;36472;52.170;20.884;2024-02-26T07:20:14;24.38;;;18.13;;
21274;SDS011;36472;52.170;20.884;2024-02-26T07:22:45;24.65;;;17.75;;
21274;SDS011;36472;52.170;20.884;2024-02-26T07:25:14;23.40;;;16.45;;
21274;SDS011;36472;52.170;20.884;2024-02-26T07:27:43;24.45;;;17.23;;
21274;SDS011;36472;52.170;20.884;2024-02-26T07:30:14;25.85;;;17.45;;
21274;SDS011;36472;52.170;20.884;2024-02-26T07:32:44;23.63;;;17.38;;
21274;SDS011;36472;52.170;20.884;2024-02-26T07:35:17;24.50;;;17.75;;
21274;SDS011;36472;52.170;20.884;2024-02-26T07:37:47;26.40;;;17.83;;
21274;SDS011;36472;52.170;20.884;2024-02-26T07:40:17;25.90;;;18.58;;
21274;SDS011;36472;52.170;20.884;2024-02-26T07:42:47;25.17;;;18.20;;
21274;SDS011;36472;52.170;20.884;2024-02-26T07:45:17;22.00;;;15.60;;
21274;SDS011;36472;52.170;20.884;2024-02-26T07:47:48;22.20;;;17.00;;
21274;SDS011;36472;52.170;20.884;2024-02-26T07:50:19;23.63;;;17.23;;
21274;SDS011;36472;52.170;20.884;2024-02-26T07:52:48;23.67;;;17.02;;
21274;SDS011;36472;52.170;20.884;2024-02-26T07:55:18;23.70;;;15.88;;
21274;SDS011;36472;52.170;20.884;2024-02-26T07:57:47;23.42;;;15.68;;
21274;SDS011;36472;52.170;20.884;2024-02-26T08:00:18;20.73;;;15.73;;
21274;SDS011;36472;52.170;20.884;2024-02-26T08:02:48;24.73;;;16.45;;
21274;SDS011;36472;52.170;20.884;2024-02-26T08:05:17;21.08;;;16.17;;
21274;SDS011;36472;52.170;20.884;2024-02-26T08:07:47;23.55;;;15.57;;
21274;SDS011;36472;52.170;20.884;2024-02-26T08:10:16;20.83;;;15.57;;
21274;SDS011;36472;52.170;20.884;2024-02-26T08:12:45;21.88;;;16.15;;
21274;SDS011;36472;52.170;20.884;2024-02-26T08:15:14;22.63;;;16.38;;
21274;SDS011;36472;52.170;20.884;2024-02-26T08:17:45;20.13;;;15.05;;
21274;SDS011;36472;52.170;20.884;2024-02-26T08:20:15;20.88;;;15.85;;
21274;SDS011;36472;52.170;20.884;2024-02-26T08:22:44;22.60;;;15.27;;
21274;SDS011;36472;52.170;20.884;2024-02-26T08:25:12;19.80;;;15.35;;
21274;SDS011;36472;52.170;20.884;2024-02-26T08:27:43;21.15;;;14.88;;
21274;SDS011;36472;52.170;20.884;2024-02-26T08:30:12;22.25;;;16.15;;
21274;SDS011;36472;52.170;20.884;2024-02-26T08:32:47;22.73;;;15.30;;
21274;SDS011;36472;52.170;20.884;2024-02-26T08:35:18;20.40;;;15.48;;
21274;SDS011;36472;52.170;20.884;2024-02-26T08:37:48;21.58;;;15.27;;
21274;SDS011;36472;52.170;20.884;2024-02-26T08:40:17;20.60;;;14.80;;
21274;SDS011;36472;52.170;20.884;2024-02-26T08:42:46;17.90;;;14.50;;
21274;SDS011;36472;52.170;20.884;2024-02-26T08:45:15;17.80;;;14.43;;
21274;SDS011;36472;52.170;20.884;2024-02-26T08:47:46;19.83;;;14.32;;
21274;SDS011;36472;52.170;20.884;2024-02-26T08:50:16;18.83;;;14.32;;
21274;SDS011;36472;52.170;20.884;2024-02-26T08:52:45;20.58;;;13.63;;
21274;SDS011;36472;52.170;20.884;2024-02-26T08:55:17;16.60;;;13.23;;
21274;SDS011;36472;52.170;20.884;2024-02-26T08:57:47;15.95;;;13.30;;
21274;SDS011;36472;52.170;20.884;2024-02-26T09:00:16;15.20;;;12.70;;
21274;SDS011;36472;52.170;20.884;2024-02-26T09:02:49;16.23;;;12.95;;
21274;SDS011;36472;52.170;20.884;2024-02-26T09:05:18;16.08;;;13.27;;
21274;SDS011;36472;52.170;20.884;2024-02-26T09:07:47;17.25;;;12.93;;
21274;SDS011;36472;52.170;20.884;2024-02-26T09:10:18;15.57;;;11.98;;
21274;SDS011;36472;52.170;20.884;2024-02-26T09:12:48;15.32;;;12.43;;
21274;SDS011;36472;52.170;20.884;2024-02-26T09:15:17;14.27;;;12.48;;
21274;SDS011;36472;52.170;20.884;2024-02-26T09:17:46;17.70;;;12.88;;
21274;SDS011;36472;52.170;20.884;2024-02-26T09:20:18;15.27;;;12.35;;
21274;SDS011;36472;52.170;20.884;2024-02-26T09:22:49;13.07;;;11.25;;
21274;SDS011;36472;52.170;20.884;2024-02-26T09:25:18;15.00;;;12.60;;
21274;SDS011;36472;52.170;20.884;2024-02-26T09:27:48;13.85;;;12.15;;
21274;SDS011;36472;52.170;20.884;2024-02-26T09:30:17;13.43;;;11.85;;
21274;SDS011;36472;52.170;20.884;2024-02-26T09:32:47;14.65;;;10.93;;
21274;SDS011;36472;52.170;20.884;2024-02-26T09:35:16;12.80;;;10.90;;
21274;SDS011;36472;52.170;20.884;2024-02-26T09:37:48;12.85;;;11.20;;
21274;SDS011;36472;52.170;20.884;2024-02-26T09:40:17;14.02;;;12.55;;
21274;SDS011;36472;52.170;20.884;2024-02-26T09:42:46;15.30;;;12.95;;
21274;SDS011;36472;52.170;20.884;2024-02-26T09:45:18;14.40;;;12.02;;
21274;SDS011;36472;52.170;20.884;2024-02-26T09:47:50;14.43;;;12.32;;
21274;SDS011;36472;52.170;20.884;2024-02-26T09:50:20;14.82;;;12.90;;
21274;SDS011;36472;52.170;20.884;2024-02-26T09:52:51;14.30;;;12.00;;
21274;SDS011;36472;52.170;20.884;2024-02-26T09:55:24;15.38;;;12.38;;
21274;SDS011;36472;52.170;20.884;2024-02-26T09:57:54;13.48;;;12.05;;
21274;SDS011;36472;52.170;20.884;2024-02-26T10:00:25;14.18;;;12.77;;
21274;SDS011;36472;52.170;20.884;2024-02-26T10:03:01;14.63;;;12.48;;
21274;SDS011;36472;52.170;20.884;2024-02-26T10:05:35;14.07;;;11.55;;
21274;SDS011;36472;52.170;20.884;2024-02-26T10:08:07;12.70;;;11.38;;
21274;SDS011;36472;52.170;20.884;2024-02-26T10:10:38;12.57;;;11.38;;
21274;SDS011;36472;52.170;20.884;2024-02-26T10:13:10;11.80;;;10.55;;
21274;SDS011;36472;52.170;20.884;2024-02-26T10:15:39;13.57;;;12.10;;
21274;SDS011;36472;52.170;20.884;2024-02-26T10:18:08;12.90;;;11.35;;
21274;SDS011;36472;52.170;20.884;2024-02-26T10:20:38;13.88;;;11.35;;
21274;SDS011;36472;52.170;20.884;2024-02-26T10:23:08;12.10;;;10.65;;
21274;SDS011;36472;52.170;20.884;2024-02-26T10:25:37;11.57;;;10.38;;
21274;SDS011;36472;52.170;20.884;2024-02-26T10:28:20;12.48;;;10.60;;
21274;SDS011;36472;52.170;20.884;2024-02-26T10:30:51;13.88;;;11.65;;
21274;SDS011;36472;52.170;20.884;2024-02-26T10:33:21;12.25;;;10.27;;
21274;SDS011;36472;52.170;20.884;2024-02-26T10:35:52;11.63;;;10.43;;
21274;SDS011;36472;52.170;20.884;2024-02-26T10:38:23;14.18;;;10.30;;
21274;SDS011;36472;52.170;20.884;2024-02-26T10:40:52;13.82;;;10.27;;
21274;SDS011;36472;52.170;20.884;2024-02-26T10:43:21;11.18;;;9.98;;
21274;SDS011;36472;52.170;20.884;2024-02-26T10:45:50;12.48;;;10.32;;
21274;SDS011;36472;52.170;20.884;2024-02-26T10:48:20;13.10;;;11.60;;
21274;SDS011;36472;52.170;20.884;2024-02-26T10:50:49;15.70;;;11.98;;
21274;SDS011;36472;52.170;20.884;2024-02-26T10:53:21;14.80;;;11.98;;
21274;SDS011;36472;52.170;20.884;2024-02-26T10:55:52;14.88;;;13.10;;
21274;SDS011;36472;52.170;20.884;2024-02-26T10:58:25;13.95;;;12.45;;
21274;SDS011;36472;52.170;20.884;2024-02-26T11:00:57;14.05;;;11.75;;
21274;SDS011;36472;52.170;20.884;2024-02-26T11:03:27;15.13;;;12.70;;
21274;SDS011;36472;52.170;20.884;2024-02-26T11:06:04;14.10;;;12.35;;
21274;SDS011;36472;52.170;20.884;2024-02-26T11:08:35;14.75;;;12.77;;
21274;SDS011;36472;52.170;20.884;2024-02-26T11:11:04;13.18;;;11.77;;
21274;SDS011;36472;52.170;20.884;2024-02-26T11:13:35;12.45;;;11.15;;
21274;SDS011;36472;52.170;20.884;2024-02-26T11:16:10;11.77;;;10.32;;
21274;SDS011;36472;52.170;20.884;2024-02-26T11:18:40;13.52;;;11.02;;
21274;SDS011;36472;52.170;20.884;2024-02-26T11:21:13;12.48;;;10.75;;
21274;SDS011;36472;52.170;20.884;2024-02-26T11:23:45;14.80;;;11.05;;
21274;SDS011;36472;52.170;20.884;2024-02-26T11:26:15;10.82;;;9.10;;
21274;SDS011;36472;52.170;20.884;2024-02-26T11:28:46;10.35;;;9.25;;
21274;SDS011;36472;52.170;20.884;2024-02-26T11:31:17;11.48;;;9.27;;
21274;SDS011;36472;52.170;20.884;2024-02-26T11:33:53;10.13;;;9.07;;
21274;SDS011;36472;52.170;20.884;2024-02-26T11:36:25;10.40;;;8.35;;
21274;SDS011;36472;52.170;20.884;2024-02-26T11:38:55;8.10;;;7.30;;
21274;SDS011;36472;52.170;20.884;2024-02-26T11:41:25;9.07;;;7.40;;
21274;SDS011;36472;52.170;20.884;2024-02-26T11:43:57;9.05;;;7.28;;
21274;SDS011;36472;52.170;20.884;2024-02-26T11:46:29;9.38;;;7.00;;
21274;SDS011;36472;52.170;20.884;2024-02-26T11:49:00;7.35;;;6.63;;
21274;SDS011;36472;52.170;20.884;2024-02-26T11:51:33;8.05;;;7.10;;
21274;SDS011;36472;52.170;20.884;2024-02-26T11:54:03;6.80;;;6.10;;
21274;SDS011;36472;52.170;20.884;2024-02-26T11:56:33;6.38;;;5.75;;
21274;SDS011;36472;52.170;20.884;2024-02-26T11:59:03;5.75;;;5.25;;
21274;SDS011;36472;52.170;20.884;2024-02-26T12:01:43;5.82;;;5.32;;
21274;SDS011;36472;52.170;20.884;2024-02-26T12:04:16;6.00;;;5.45;;
21274;SDS011;36472;52.170;20.884;2024-02-26T12:06:51;5.90;;;5.20;;
21274;SDS011;36472;52.170;20.884;2024-02-26T12:09:31;5.28;;;4.78;;
21274;SDS011;36472;52.170;20.884;2024-02-26T12:12:05;5.25;;;4.70;;
21274;SDS011;36472;52.170;20.884;2024-02-26T12:14:39;5.68;;;5.03;;
21274;SDS011;36472;52.170;20.884;2024-02-26T12:17:20;5.35;;;4.85;;
21274;SDS011;36472;52.170;20.884;2024-02-26T12:19:52;4.78;;;4.35;;
21274;SDS011;36472;52.170;20.884;2024-02-26T12:22:23;5.32;;;4.82;;
21274;SDS011;36472;52.170;20.884;2024-02-26T12:24:58;5.03;;;4.53;;
21274;SDS011;36472;52.170;20.884;2024-02-26T12:27:28;5.45;;;4.63;;
21274;SDS011;36472;52.170;20.884;2024-02-26T12:29:57;4.95;;;4.43;;
21274;SDS011;36472;52.170;20.884;2024-02-26T12:32:26;5.03;;;4.55;;
21274;SDS011;36472;52.170;20.884;2024-02-26T12:34:56;4.95;;;4.55;;
21274;SDS011;36472;52.170;20.884;2024-02-26T12:37:28;5.80;;;5.30;;
21274;SDS011;36472;52.170;20.884;2024-02-26T12:39:57;6.20;;;5.10;;
21274;SDS011;36472;52.170;20.884;2024-02-26T12:42:26;7.07;;;5.32;;
21274;SDS011;36472;52.170;20.884;2024-02-26T12:44:56;5.60;;;5.10;;
21274;SDS011;36472;52.170;20.884;2024-02-26T12:47:26;6.13;;;5.45;;
21274;SDS011;36472;52.170;20.884;2024-02-26T12:49:56;6.20;;;5.15;;
21274;SDS011;36472;52.170;20.884;2024-02-26T12:52:26;5.57;;;5.00;;
21274;SDS011;36472;52.170;20.884;2024-02-26T12:54:56;5.75;;;5.15;;
21274;SDS011;36472;52.170;20.884;2024-02-26T12:57:25;5.05;;;4.55;;
21274;SDS011;36472;52.170;20.884;2024-02-26T12:59:57;5.25;;;4.75;;
21274;SDS011;36472;52.170;20.884;2024-02-26T13:02:27;5.80;;;4.85;;
21274;SDS011;36472;52.170;20.884;2024-02-26T13:04:57;5.35;;;4.40;;
21274;SDS011;36472;52.170;20.884;2024-02-26T13:07:28;5.28;;;4.78;;
21274;SDS011;36472;52.170;20.884;2024-02-26T13:09:59;5.65;;;4.18;;
21274;SDS011;36472;52.170;20.884;2024-02-26T13:12:28;5.32;;;4.70;;
21274;SDS011;36472;52.170;20.884;2024-02-26T13:14:58;5.38;;;4.88;;
21274;SDS011;36472;52.170;20.884;2024-02-26T13:17:31;4.82;;;4.32;;
21274;SDS011;36472;52.170;20.884;2024-02-26T13:20:01;5.07;;;4.57;;
21274;SDS011;36472;52.170;20.884;2024-02-26T13:22:31;4.82;;;4.40;;
21274;SDS011;36472;52.170;20.884;2024-02-26T13:25:04;5.35;;;4.85;;
21274;SDS011;36472;52.170;20.884;2024-02-26T13:27:34;4.72;;;4.03;;
21274;SDS011;36472;52.170;20.884;2024-02-26T13:30:04;6.55;;;4.22;;
21274;SDS011;36472;52.170;20.884;2024-02-26T13:32:39;4.80;;;4.13;;
21274;SDS011;36472;52.170;20.884;2024-02-26T13:39:42;4.05;;;3.60;;
21274;SDS011;36472;52.170;20.884;2024-02-26T13:46:44;3.63;;;3.28;;
21274;SDS011;36472;52.170;20.884;2024-02-26T13:49:13;4.07;;;3.67;;
21274;SDS011;36472;52.170;20.884;2024-02-26T13:51:42;4.13;;;3.28;;
21274;SDS011;36472;52.170;20.884;2024-02-26T13:58:44;3.40;;;3.10;;
21274;SDS011;36472;52.170;20.884;2024-02-26T14:01:14;3.20;;;2.90;;
21274;SDS011;36472;52.170;20.884;2024-02-26T14:03:44;3.42;;;3.13;;
21274;SDS011;36472;52.170;20.884;2024-02-26T14:06:13;3.75;;;2.78;;
21274;SDS011;36472;52.170;20.884;2024-02-26T14:08:43;4.15;;;2.90;;
21274;SDS011;36472;52.170;20.884;2024-02-26T14:11:12;3.90;;;2.75;;
21274;SDS011;36472;52.170;20.884;2024-02-26T14:13:41;2.67;;;2.47;;
21274;SDS011;36472;52.170;20.884;2024-02-26T14:20:46;4.43;;;3.30;;
21274;SDS011;36472;52.170;20.884;2024-02-26T14:23:15;6.15;;;3.35;;
21274;SDS011;36472;52.170;20.884;2024-02-26T14:25:44;3.13;;;2.83;;
21274;SDS011;36472;52.170;20.884;2024-02-26T14:28:13;4.75;;;3.45;;
21274;SDS011;36472;52.170;20.884;2024-02-26T14:30:51;3.03;;;2.72;;
21274;SDS011;36472;52.170;20.884;2024-02-26T14:37:54;3.30;;;3.00;;
21274;SDS011;36472;52.170;20.884;2024-02-26T14:40:27;3.58;;;3.28;;
21274;SDS011;36472;52.170;20.884;2024-02-26T14:42:57;3.58;;;3.28;;
21274;SDS011;36472;52.170;20.884;2024-02-26T14:45:27;4.03;;;3.63;;
21274;SDS011;36472;52.170;20.884;2024-02-26T14:47:56;3.75;;;3.35;;
21274;SDS011;36472;52.170;20.884;2024-02-26T14:50:25;4.50;;;3.33;;
21274;SDS011;36472;52.170;20.884;2024-02-26T14:52:56;3.63;;;3.28;;